London Express — DPLE — position and weather

sailwx.info

Track history (hours):
 
Tides and Currents Weather Stations Pressure Air Temp Water Temp Dewpoint Dewpoint Depression Visibility Wind Speed Wind Dir Waves Ship Positions

London Express

Last reported at 2014-Oct-22 21:31 UTC. Time now 2014-Oct-22 22:33 UTC.
Position N 53°35' E 008°32'.

Length 294 m; beam 32.3 m; draft 13.6 m.

Type: Ship. MMSI: 211262630.

Date/timePositionNaut miles runAvg speedWind from/ knotsBaromVisibWave heightAir tempDewpointWater temp
2014-Oct-22 21:31N 53°35' E 008°32'0 0.0
2014-Oct-22 20:34N 53°35' E 008°32'1 0.9
2014-Oct-22 19:33N 53°36' E 008°31'1413.6
2014-Oct-22 18:34N 53°44' E 008°13'53 9.7
2014-Oct-22 13:04N 53°49' E 006°43'1315.1
2014-Oct-22 12:13N 53°46' E 006°22'1015.1
2014-Oct-22 11:32N 53°43' E 006°05'1515.1
2014-Oct-22 10:33N 53°38' E 005°42'1515.2
2014-Oct-22 09:34N 53°33' E 005°18'1514.9
2014-Oct-22 08:33N 53°27' E 004°55'1110.9
2014-Oct-22 07:33N 53°19' E 004°42'1210.5
2014-Oct-22 06:22N 53°08' E 004°32'910.9
2014-Oct-22 05:32N 53°01' E 004°24'1211.5
2014-Oct-22 04:32N 52°50' E 004°15'1211.7
2014-Oct-22 03:32N 52°41' E 004°04'1313.4
2014-Oct-22 02:33N 52°31' E 003°49'6813.5
2014-Oct-21 21:33N 51°42' E 002°33'1312.8
2014-Oct-21 20:33N 51°32' E 002°19'1110.8
2014-Oct-21 19:33N 51°22' E 002°14'1211.9
2014-Oct-21 18:33N 51°23' E 002°33'1111.1
2014-Oct-21 17:33N 51°25' E 002°51'1514.7
2014-Oct-21 16:33N 51°25' E 003°14'1313.3
2014-Oct-21 15:33N 51°26' E 003°35'1211.6
2014-Oct-21 14:33N 51°21' E 003°52'10 9.6
2014-Oct-21 13:33N 51°22' E 004°07'6 6.2
2014-Oct-21 12:33N 51°20' E 004°17'0 0.0
2014-Oct-21 11:33N 51°20' E 004°17'0 0.0
2014-Oct-21 10:33N 51°20' E 004°17'0 0.0
2014-Oct-21 09:33N 51°20' E 004°17'0 0.0
2014-Oct-21 08:33N 51°20' E 004°17'0 0.0
2014-Oct-21 07:33N 51°20' E 004°17'0 0.0
2014-Oct-21 06:33N 51°20' E 004°17'0 0.0
2014-Oct-21 05:33N 51°20' E 004°17'0 0.0
2014-Oct-21 04:33N 51°20' E 004°17'0 0.0
2014-Oct-21 03:33N 51°20' E 004°17'0 0.0
2014-Oct-21 02:33N 51°20' E 004°17'0 0.0
2014-Oct-21 01:33N 51°20' E 004°17'0 0.0
2014-Oct-21 00:33N 51°20' E 004°17'0 0.0
2014-Oct-20 23:33N 51°20' E 004°17'0 0.0
2014-Oct-20 22:33N 51°20' E 004°17'0 0.0
2014-Oct-20 21:33N 51°20' E 004°17'0 0.0
2014-Oct-20 20:33N 51°20' E 004°17'0 0.0
2014-Oct-20 19:33N 51°20' E 004°17'0 0.0
2014-Oct-20 18:33N 51°20' E 004°17'0 0.0
2014-Oct-20 17:33N 51°20' E 004°17'0 0.0
2014-Oct-20 16:33N 51°20' E 004°17'0 0.0
2014-Oct-20 15:33N 51°20' E 004°17'0 0.0
2014-Oct-20 14:33N 51°20' E 004°17'0 0.0
2014-Oct-20 13:33N 51°20' E 004°17'0 0.0
2014-Oct-20 12:33N 51°20' E 004°17'0 0.1
2014-Oct-20 11:33N 51°20' E 004°17'7 6.5
2014-Oct-20 10:34N 51°22' E 004°07'9 8.6
2014-Oct-20 09:33N 51°21' E 003°53'1111.2
2014-Oct-20 08:33N 51°26' E 003°37'1414.3
2014-Oct-20 07:33N 51°24' E 003°14'1515.0
2014-Oct-20 06:33N 51°22' E 002°50'8 7.7
2014-Oct-20 05:30N 51°27' E 002°40'2 1.6
2014-Oct-20 04:26N 51°26' E 002°37'0 0.1
2014-Oct-20 03:25N 51°26' E 002°37'0 0.0
2014-Oct-20 02:31N 51°26' E 002°37'0 0.0
2014-Oct-20 01:25N 51°26' E 002°37'0 0.0
2014-Oct-20 00:27N 51°26' E 002°37'0 0.0
2014-Oct-19 23:21N 51°26' E 002°37'0 0.0
2014-Oct-19 22:32N 51°26' E 002°37'0 0.0
2014-Oct-19 21:32N 51°26' E 002°37'0 0.0
2014-Oct-19 20:31N 51°26' E 002°37'0 0.0
2014-Oct-19 19:31N 51°26' E 002°37'0 0.0
2014-Oct-19 18:31N 51°26' E 002°37'0 0.0
2014-Oct-19 17:21N 51°26' E 002°37'0 0.0
2014-Oct-19 16:30N 51°26' E 002°37'0 0.0
2014-Oct-19 15:26N 51°26' E 002°37'0 0.1
2014-Oct-19 14:32N 51°26' E 002°37'0 0.0
2014-Oct-19 13:31N 51°26' E 002°37'0 0.0
2014-Oct-19 12:31N 51°26' E 002°37'0 0.0
2014-Oct-19 11:31N 51°26' E 002°37'1 1.3
2014-Oct-19 10:30N 51°27' E 002°35'1313.7
2014-Oct-19 09:33N 51°19' E 002°20'1716.6
2014-Oct-19 08:33N 51°10' E 001°57'1716.6
2014-Oct-19 07:33N 50°59' E 001°37'1615.6
2014-Oct-19 06:33N 50°46' E 001°24'8712.4
2014-Oct-18 23:33N 50°33' W 000°51'1212.3
2014-Oct-18 22:34N 50°43' W 001°02'1312.8
2014-Oct-18 21:33N 50°50' W 001°19'6 6.0
2014-Oct-18 20:31N 50°54' W 001°27'1 0.7
2014-Oct-18 19:31N 50°55' W 001°28'0 0.0
2014-Oct-18 18:33N 50°55' W 001°28'0 0.0
2014-Oct-18 17:33N 50°55' W 001°28'0 0.0
2014-Oct-18 16:32N 50°55' W 001°28'0 0.0
2014-Oct-18 15:32N 50°55' W 001°28'0 0.0
2014-Oct-18 14:31N 50°55' W 001°28'0 0.0
2014-Oct-18 13:31N 50°55' W 001°28'0 0.0
2014-Oct-18 12:31N 50°55' W 001°28'0 0.0
2014-Oct-18 11:33N 50°55' W 001°28'0 0.0
2014-Oct-18 10:33N 50°55' W 001°28'0 0.0
2014-Oct-18 09:33N 50°55' W 001°28'0 0.0
2014-Oct-18 08:33N 50°55' W 001°28'0 0.0
2014-Oct-18 07:33N 50°55' W 001°28'0 0.1
2014-Oct-18 06:33N 50°55' W 001°28'6 5.7
2014-Oct-18 05:33N 50°51' W 001°21'9 9.1
2014-Oct-18 04:33N 50°46' W 001°09'1111.3
2014-Oct-18 03:33N 50°37' W 000°57'5 4.6
2014-Oct-18 02:32N 50°34' W 001°03'0 0.1
2014-Oct-18 01:31N 50°35' W 001°03'0 0.0
2014-Oct-18 00:31N 50°35' W 001°03'0 0.1
2014-Oct-17 23:30N 50°35' W 001°03'0 0.1
2014-Oct-17 22:33N 50°34' W 001°03'0 0.0
2014-Oct-17 21:32N 50°34' W 001°03'0 0.0
2014-Oct-17 20:32N 50°34' W 001°03'0 0.1
2014-Oct-17 19:32N 50°34' W 001°03'0 0.1
2014-Oct-17 18:10N 50°35' W 001°03'0 0.1
2014-Oct-17 17:31N 50°35' W 001°03'0 0.1
2014-Oct-17 16:33N 50°34' W 001°03'0 0.0
2014-Oct-17 15:33N 50°34' W 001°03'0 0.0
2014-Oct-17 14:15N 50°34' W 001°03'0 0.0
2014-Oct-17 13:32N 50°34' W 001°03'0 0.1
2014-Oct-17 12:32N 50°34' W 001°03'0 0.0
2014-Oct-17 11:31N 50°35' W 001°03'0 0.1
2014-Oct-17 10:25N 50°35' W 001°03'0 0.2
2014-Oct-17 09:31N 50°34' W 001°03'0 0.0
2014-Oct-17 08:30N 50°34' W 001°03'0 0.0
2014-Oct-17 07:33N 50°34' W 001°03'0 0.2
2014-Oct-17 06:26N 50°35' W 001°03'0 0.1
2014-Oct-17 05:29N 50°35' W 001°03'0 0.0
2014-Oct-17 04:31N 50°34' W 001°03'0 0.0
2014-Oct-17 03:28N 50°34' W 001°03'0 0.0
2014-Oct-17 02:31N 50°34' W 001°03'0 0.0
2014-Oct-17 01:33N 50°34' W 001°03'0 0.0
2014-Oct-17 00:33N 50°34' W 001°03'0 0.0
2014-Oct-16 23:32N 50°34' W 001°03'0 0.0
2014-Oct-16 22:32N 50°34' W 001°03'0 0.3
2014-Oct-16 21:31N 50°34' W 001°03'0 0.0
2014-Oct-16 20:28N 50°34' W 001°03'0 0.0
2014-Oct-16 19:25N 50°34' W 001°03'0 0.0
2014-Oct-16 18:33N 50°34' W 001°03'0 0.2
2014-Oct-16 17:18N 50°35' W 001°03'0 0.2
2014-Oct-16 16:32N 50°35' W 001°03'0 0.0
2014-Oct-16 15:32N 50°35' W 001°03'0 0.0
2014-Oct-16 14:31N 50°34' W 001°03'0 0.0
2014-Oct-16 13:31N 50°34' W 001°03'0 0.0
2014-Oct-16 12:31N 50°34' W 001°03'0 0.0
2014-Oct-16 11:33N 50°34' W 001°02'0 0.0
2014-Oct-16 10:33N 50°34' W 001°03'0 0.0
2014-Oct-16 09:33N 50°35' W 001°03'0 0.5
2014-Oct-16 08:33N 50°34' W 001°03'8211.7
2014-Oct-16 01:32N 49°51' W 002°52'65717.5
2014-Oct-14 12:00N 50°18' W 019°54'25514.2 200 / 22987.5 5.4 3.014.012.416.0
2014-Oct-13 18:00N 49°18' W 026°18'10918.1 160 / 45985.0 1.1 4.012.511.615.0
2014-Oct-13 12:00N 48°54' W 029°00'10417.4 160 / 32992.0 5.4 3.512.010.213.0
2014-Oct-13 06:00N 48°36' W 031°36'   150 / 231002.510.8 2.012.5 7.815.0
Track history (hours):
 
Tides and Currents Weather Stations Pressure Air Temp Water Temp Dewpoint Dewpoint Depression Visibility Wind Speed Wind Dir Waves Ship Positions

London Express

Last reported at 2014-Oct-22 21:31 UTC. Time now 2014-Oct-22 22:33 UTC.
Position N 53°35' E 008°32'.

Length 294 m; beam 32.3 m; draft 13.6 m.

Type: Ship. MMSI: 211262630.

Date/timePositionNaut miles runAvg speedWind from/ knotsBaromVisibWave heightAir tempDewpointWater temp
2014-Oct-22 21:31N 53°35' E 008°32'0 0.0
2014-Oct-22 20:34N 53°35' E 008°32'1 0.9
2014-Oct-22 19:33N 53°36' E 008°31'1413.6
2014-Oct-22 18:34N 53°44' E 008°13'53 9.7
2014-Oct-22 13:04N 53°49' E 006°43'1315.1
2014-Oct-22 12:13N 53°46' E 006°22'1015.1
2014-Oct-22 11:32N 53°43' E 006°05'1515.1
2014-Oct-22 10:33N 53°38' E 005°42'1515.2
2014-Oct-22 09:34N 53°33' E 005°18'1514.9
2014-Oct-22 08:33N 53°27' E 004°55'1110.9
2014-Oct-22 07:33N 53°19' E 004°42'1210.5
2014-Oct-22 06:22N 53°08' E 004°32'910.9
2014-Oct-22 05:32N 53°01' E 004°24'1211.5
2014-Oct-22 04:32N 52°50' E 004°15'1211.7
2014-Oct-22 03:32N 52°41' E 004°04'1313.4
2014-Oct-22 02:33N 52°31' E 003°49'6813.5
2014-Oct-21 21:33N 51°42' E 002°33'1312.8
2014-Oct-21 20:33N 51°32' E 002°19'1110.8
2014-Oct-21 19:33N 51°22' E 002°14'1211.9
2014-Oct-21 18:33N 51°23' E 002°33'1111.1
2014-Oct-21 17:33N 51°25' E 002°51'1514.7
2014-Oct-21 16:33N 51°25' E 003°14'1313.3
2014-Oct-21 15:33N 51°26' E 003°35'1211.6
2014-Oct-21 14:33N 51°21' E 003°52'10 9.6
2014-Oct-21 13:33N 51°22' E 004°07'6 6.2
2014-Oct-21 12:33N 51°20' E 004°17'0 0.0
2014-Oct-21 11:33N 51°20' E 004°17'0 0.0
2014-Oct-21 10:33N 51°20' E 004°17'0 0.0
2014-Oct-21 09:33N 51°20' E 004°17'0 0.0
2014-Oct-21 08:33N 51°20' E 004°17'0 0.0
2014-Oct-21 07:33N 51°20' E 004°17'0 0.0
2014-Oct-21 06:33N 51°20' E 004°17'0 0.0
2014-Oct-21 05:33N 51°20' E 004°17'0 0.0
2014-Oct-21 04:33N 51°20' E 004°17'0 0.0
2014-Oct-21 03:33N 51°20' E 004°17'0 0.0
2014-Oct-21 02:33N 51°20' E 004°17'0 0.0
2014-Oct-21 01:33N 51°20' E 004°17'0 0.0
2014-Oct-21 00:33N 51°20' E 004°17'0 0.0
2014-Oct-20 23:33N 51°20' E 004°17'0 0.0
2014-Oct-20 22:33N 51°20' E 004°17'0 0.0
2014-Oct-20 21:33N 51°20' E 004°17'0 0.0
2014-Oct-20 20:33N 51°20' E 004°17'0 0.0
2014-Oct-20 19:33N 51°20' E 004°17'0 0.0
2014-Oct-20 18:33N 51°20' E 004°17'0 0.0
2014-Oct-20 17:33N 51°20' E 004°17'0 0.0
2014-Oct-20 16:33N 51°20' E 004°17'0 0.0
2014-Oct-20 15:33N 51°20' E 004°17'0 0.0
2014-Oct-20 14:33N 51°20' E 004°17'0 0.0
2014-Oct-20 13:33N 51°20' E 004°17'0 0.0
2014-Oct-20 12:33N 51°20' E 004°17'0 0.1
2014-Oct-20 11:33N 51°20' E 004°17'7 6.5
2014-Oct-20 10:34N 51°22' E 004°07'9 8.6
2014-Oct-20 09:33N 51°21' E 003°53'1111.2
2014-Oct-20 08:33N 51°26' E 003°37'1414.3
2014-Oct-20 07:33N 51°24' E 003°14'1515.0
2014-Oct-20 06:33N 51°22' E 002°50'8 7.7
2014-Oct-20 05:30N 51°27' E 002°40'2 1.6
2014-Oct-20 04:26N 51°26' E 002°37'0 0.1
2014-Oct-20 03:25N 51°26' E 002°37'0 0.0
2014-Oct-20 02:31N 51°26' E 002°37'0 0.0
2014-Oct-20 01:25N 51°26' E 002°37'0 0.0
2014-Oct-20 00:27N 51°26' E 002°37'0 0.0
2014-Oct-19 23:21N 51°26' E 002°37'0 0.0
2014-Oct-19 22:32N 51°26' E 002°37'0 0.0
2014-Oct-19 21:32N 51°26' E 002°37'0 0.0
2014-Oct-19 20:31N 51°26' E 002°37'0 0.0
2014-Oct-19 19:31N 51°26' E 002°37'0 0.0
2014-Oct-19 18:31N 51°26' E 002°37'0 0.0
2014-Oct-19 17:21N 51°26' E 002°37'0 0.0
2014-Oct-19 16:30N 51°26' E 002°37'0 0.0
2014-Oct-19 15:26N 51°26' E 002°37'0 0.1
2014-Oct-19 14:32N 51°26' E 002°37'0 0.0
2014-Oct-19 13:31N 51°26' E 002°37'0 0.0
2014-Oct-19 12:31N 51°26' E 002°37'0 0.0
2014-Oct-19 11:31N 51°26' E 002°37'1 1.3
2014-Oct-19 10:30N 51°27' E 002°35'1313.7
2014-Oct-19 09:33N 51°19' E 002°20'1716.6
2014-Oct-19 08:33N 51°10' E 001°57'1716.6
2014-Oct-19 07:33N 50°59' E 001°37'1615.6
2014-Oct-19 06:33N 50°46' E 001°24'8712.4
2014-Oct-18 23:33N 50°33' W 000°51'1212.3
2014-Oct-18 22:34N 50°43' W 001°02'1312.8
2014-Oct-18 21:33N 50°50' W 001°19'6 6.0
2014-Oct-18 20:31N 50°54' W 001°27'1 0.7
2014-Oct-18 19:31N 50°55' W 001°28'0 0.0
2014-Oct-18 18:33N 50°55' W 001°28'0 0.0
2014-Oct-18 17:33N 50°55' W 001°28'0 0.0
2014-Oct-18 16:32N 50°55' W 001°28'0 0.0
2014-Oct-18 15:32N 50°55' W 001°28'0 0.0
2014-Oct-18 14:31N 50°55' W 001°28'0 0.0
2014-Oct-18 13:31N 50°55' W 001°28'0 0.0
2014-Oct-18 12:31N 50°55' W 001°28'0 0.0
2014-Oct-18 11:33N 50°55' W 001°28'0 0.0
2014-Oct-18 10:33N 50°55' W 001°28'0 0.0
2014-Oct-18 09:33N 50°55' W 001°28'0 0.0
2014-Oct-18 08:33N 50°55' W 001°28'0 0.0
2014-Oct-18 07:33N 50°55' W 001°28'0 0.1
2014-Oct-18 06:33N 50°55' W 001°28'6 5.7
2014-Oct-18 05:33N 50°51' W 001°21'9 9.1
2014-Oct-18 04:33N 50°46' W 001°09'1111.3
2014-Oct-18 03:33N 50°37' W 000°57'5 4.6
2014-Oct-18 02:32N 50°34' W 001°03'0 0.1
2014-Oct-18 01:31N 50°35' W 001°03'0 0.0
2014-Oct-18 00:31N 50°35' W 001°03'0 0.1
2014-Oct-17 23:30N 50°35' W 001°03'0 0.1
2014-Oct-17 22:33N 50°34' W 001°03'0 0.0
2014-Oct-17 21:32N 50°34' W 001°03'0 0.0
2014-Oct-17 20:32N 50°34' W 001°03'0 0.1
2014-Oct-17 19:32N 50°34' W 001°03'0 0.1
2014-Oct-17 18:10N 50°35' W 001°03'0 0.1
2014-Oct-17 17:31N 50°35' W 001°03'0 0.1
2014-Oct-17 16:33N 50°34' W 001°03'0 0.0
2014-Oct-17 15:33N 50°34' W 001°03'0 0.0
2014-Oct-17 14:15N 50°34' W 001°03'0 0.0
2014-Oct-17 13:32N 50°34' W 001°03'0 0.1
2014-Oct-17 12:32N 50°34' W 001°03'0 0.0
2014-Oct-17 11:31N 50°35' W 001°03'0 0.1
2014-Oct-17 10:25N 50°35' W 001°03'0 0.2
2014-Oct-17 09:31N 50°34' W 001°03'0 0.0
2014-Oct-17 08:30N 50°34' W 001°03'0 0.0
2014-Oct-17 07:33N 50°34' W 001°03'0 0.2
2014-Oct-17 06:26N 50°35' W 001°03'0 0.1
2014-Oct-17 05:29N 50°35' W 001°03'0 0.0
2014-Oct-17 04:31N 50°34' W 001°03'0 0.0
2014-Oct-17 03:28N 50°34' W 001°03'0 0.0
2014-Oct-17 02:31N 50°34' W 001°03'0 0.0
2014-Oct-17 01:33N 50°34' W 001°03'0 0.0
2014-Oct-17 00:33N 50°34' W 001°03'0 0.0
2014-Oct-16 23:32N 50°34' W 001°03'0 0.0
2014-Oct-16 22:32N 50°34' W 001°03'0 0.3
2014-Oct-16 21:31N 50°34' W 001°03'0 0.0
2014-Oct-16 20:28N 50°34' W 001°03'0 0.0
2014-Oct-16 19:25N 50°34' W 001°03'0 0.0
2014-Oct-16 18:33N 50°34' W 001°03'0 0.2
2014-Oct-16 17:18N 50°35' W 001°03'0 0.2
2014-Oct-16 16:32N 50°35' W 001°03'0 0.0
2014-Oct-16 15:32N 50°35' W 001°03'0 0.0
2014-Oct-16 14:31N 50°34' W 001°03'0 0.0
2014-Oct-16 13:31N 50°34' W 001°03'0 0.0
2014-Oct-16 12:31N 50°34' W 001°03'0 0.0
2014-Oct-16 11:33N 50°34' W 001°02'0 0.0
2014-Oct-16 10:33N 50°34' W 001°03'0 0.0
2014-Oct-16 09:33N 50°35' W 001°03'0 0.5
2014-Oct-16 08:33N 50°34' W 001°03'8211.7
2014-Oct-16 01:32N 49°51' W 002°52'65717.5
2014-Oct-14 12:00N 50°18' W 019°54'25514.2 200 / 22987.5 5.4 3.014.012.416.0
2014-Oct-13 18:00N 49°18' W 026°18'10918.1 160 / 45985.0 1.1 4.012.511.615.0
2014-Oct-13 12:00N 48°54' W 029°00'10417.4 160 / 32992.0 5.4 3.512.010.213.0
2014-Oct-13 06:00N 48°36' W 031°36'   150 / 231002.510.8 2.012.5 7.815.0

Dump ship's entire track history